sensor_id;sensor_type;location;lat;lon;timestamp;pressure;altitude;pressure_sealevel;temperature;humidity
44825;BME280;30542;47.928;2.138;2022-08-19T00:00:22;100429.44;;;24.18;47.99
44825;BME280;30542;47.928;2.138;2022-08-19T00:05:22;100441.31;;;24.17;47.93
44825;BME280;30542;47.928;2.138;2022-08-19T00:10:23;100444.00;;;24.17;47.94
44825;BME280;30542;47.928;2.138;2022-08-19T00:15:24;100444.00;;;24.17;47.85
44825;BME280;30542;47.928;2.138;2022-08-19T00:20:25;100432.75;;;24.15;47.99
44825;BME280;30542;47.928;2.138;2022-08-19T00:25:25;100435.44;;;24.15;47.94
44825;BME280;30542;47.928;2.138;2022-08-19T00:30:26;100426.59;;;24.09;47.90
44825;BME280;30542;47.928;2.138;2022-08-19T00:35:30;100441.91;;;24.14;48.01
44825;BME280;30542;47.928;2.138;2022-08-19T00:40:30;100433.53;;;24.15;48.08
44825;BME280;30542;47.928;2.138;2022-08-19T00:45:31;100435.44;;;24.15;47.89
44825;BME280;30542;47.928;2.138;2022-08-19T00:50:33;100440.53;;;24.16;47.88
44825;BME280;30542;47.928;2.138;2022-08-19T00:55:33;100437.59;;;24.13;48.09
44825;BME280;30542;47.928;2.138;2022-08-19T01:00:35;100437.09;;;24.11;47.88
44825;BME280;30542;47.928;2.138;2022-08-19T01:05:37;100440.59;;;24.11;47.82
44825;BME280;30542;47.928;2.138;2022-08-19T01:10:43;100447.28;;;24.14;47.90
44825;BME280;30542;47.928;2.138;2022-08-19T01:15:50;100440.59;;;24.11;47.91
44825;BME280;30542;47.928;2.138;2022-08-19T01:20:54;100446.28;;;24.10;47.92
44825;BME280;30542;47.928;2.138;2022-08-19T01:25:56;100444.38;;;24.10;48.06
44825;BME280;30542;47.928;2.138;2022-08-19T01:30:57;100443.56;;;24.10;47.96
44825;BME280;30542;47.928;2.138;2022-08-19T01:36:10;100434.97;;;24.08;47.90
44825;BME280;30542;47.928;2.138;2022-08-19T01:41:11;100432.28;;;24.08;47.98
44825;BME280;30542;47.928;2.138;2022-08-19T01:46:12;100432.81;;;24.10;47.82
44825;BME280;30542;47.928;2.138;2022-08-19T01:51:13;100440.34;;;24.08;47.76
44825;BME280;30542;47.928;2.138;2022-08-19T01:56:13;100446.03;;;24.06;47.78
44825;BME280;30542;47.928;2.138;2022-08-19T02:01:14;100442.56;;;24.05;47.79
44825;BME280;30542;47.928;2.138;2022-08-19T02:06:14;100439.34;;;24.03;48.03
44825;BME280;30542;47.928;2.138;2022-08-19T02:11:25;100436.16;;;24.01;47.79
44825;BME280;30542;47.928;2.138;2022-08-19T02:16:27;100437.44;;;24.04;47.71
44825;BME280;30542;47.928;2.138;2022-08-19T02:21:29;100438.53;;;24.03;47.79
44825;BME280;30542;47.928;2.138;2022-08-19T02:26:31;100452.28;;;24.01;47.74
44825;BME280;30542;47.928;2.138;2022-08-19T02:31:32;100454.97;;;24.01;47.67
44825;BME280;30542;47.928;2.138;2022-08-19T02:36:33;100466.78;;;24.05;47.55
44825;BME280;30542;47.928;2.138;2022-08-19T02:41:34;100471.63;;;24.03;47.67
44825;BME280;30542;47.928;2.138;2022-08-19T02:46:34;100476.50;;;24.01;47.64
44825;BME280;30542;47.928;2.138;2022-08-19T02:51:40;100479.75;;;23.98;47.62
44825;BME280;30542;47.928;2.138;2022-08-19T02:56:43;100486.72;;;23.99;47.55
44825;BME280;30542;47.928;2.138;2022-08-19T03:01:43;100485.94;;;23.99;47.58
44825;BME280;30542;47.928;2.138;2022-08-19T03:06:46;100477.34;;;23.97;47.57
44825;BME280;30542;47.928;2.138;2022-08-19T03:11:46;100475.75;;;23.96;47.50
44825;BME280;30542;47.928;2.138;2022-08-19T03:16:48;100468.75;;;23.95;47.30
44825;BME280;30542;47.928;2.138;2022-08-19T03:21:50;100473.63;;;23.93;47.49
44825;BME280;30542;47.928;2.138;2022-08-19T03:26:53;100468.53;;;23.91;47.40
44825;BME280;30542;47.928;2.138;2022-08-19T03:31:59;100476.38;;;23.88;47.41
44825;BME280;30542;47.928;2.138;2022-08-19T03:42:10;100484.97;;;23.90;47.43
44825;BME280;30542;47.928;2.138;2022-08-19T03:52:14;100477.97;;;23.89;47.52
44825;BME280;30542;47.928;2.138;2022-08-19T03:57:15;100481.75;;;23.88;47.71
44825;BME280;30542;47.928;2.138;2022-08-19T04:02:15;100479.84;;;23.88;47.64
44825;BME280;30542;47.928;2.138;2022-08-19T04:07:16;100477.97;;;23.89;47.40
44825;BME280;30542;47.928;2.138;2022-08-19T04:12:21;100478.03;;;23.84;47.41
44825;BME280;30542;47.928;2.138;2022-08-19T04:17:21;100481.25;;;23.86;47.53
44825;BME280;30542;47.928;2.138;2022-08-19T04:22:22;100480.66;;;23.89;47.57
44825;BME280;30542;47.928;2.138;2022-08-19T04:27:22;100483.66;;;23.87;48.05
44825;BME280;30542;47.928;2.138;2022-08-19T04:32:22;100490.59;;;23.93;48.94
44825;BME280;30542;47.928;2.138;2022-08-19T04:37:23;100491.78;;;23.82;50.66
44825;BME280;30542;47.928;2.138;2022-08-19T04:42:25;100496.84;;;23.54;49.60
44825;BME280;30542;47.928;2.138;2022-08-19T04:47:42;100499.72;;;23.34;49.99
44825;BME280;30542;47.928;2.138;2022-08-19T04:52:43;100495.53;;;23.23;50.04
44825;BME280;30542;47.928;2.138;2022-08-19T04:57:43;100505.00;;;23.15;50.69
44825;BME280;30542;47.928;2.138;2022-08-19T05:02:44;100504.00;;;23.06;50.81
44825;BME280;30542;47.928;2.138;2022-08-19T05:07:44;100510.06;;;23.17;50.62
44825;BME280;30542;47.928;2.138;2022-08-19T05:12:45;100511.84;;;23.31;51.09
44825;BME280;30542;47.928;2.138;2022-08-19T05:17:45;100529.53;;;23.38;51.34
44825;BME280;30542;47.928;2.138;2022-08-19T05:23:06;100529.78;;;23.41;51.23
44825;BME280;30542;47.928;2.138;2022-08-19T05:28:06;100523.88;;;23.39;51.31
44825;BME280;30542;47.928;2.138;2022-08-19T05:33:07;100536.47;;;23.44;51.17
44825;BME280;30542;47.928;2.138;2022-08-19T05:38:10;100530.84;;;23.40;51.43
44825;BME280;30542;47.928;2.138;2022-08-19T05:43:11;100538.38;;;23.43;51.24
44825;BME280;30542;47.928;2.138;2022-08-19T05:48:12;100538.88;;;23.45;51.20
44825;BME280;30542;47.928;2.138;2022-08-19T05:53:12;100549.13;;;23.43;51.08
44825;BME280;30542;47.928;2.138;2022-08-19T05:58:14;100541.56;;;23.45;51.06
44825;BME280;30542;47.928;2.138;2022-08-19T06:03:14;100556.34;;;23.48;55.79
44825;BME280;30542;47.928;2.138;2022-08-19T06:08:15;100545.03;;;23.46;55.21
44825;BME280;30542;47.928;2.138;2022-08-19T06:13:18;100560.38;;;23.45;54.30
44825;BME280;30542;47.928;2.138;2022-08-19T06:18:19;100552.59;;;23.44;52.99
44825;BME280;30542;47.928;2.138;2022-08-19T06:23:19;100559.03;;;23.48;52.42
44825;BME280;30542;47.928;2.138;2022-08-19T06:28:20;100553.06;;;23.51;56.03
44825;BME280;30542;47.928;2.138;2022-08-19T06:33:20;100561.38;;;23.54;56.04
44825;BME280;30542;47.928;2.138;2022-08-19T06:38:21;100571.34;;;23.54;55.53
44825;BME280;30542;47.928;2.138;2022-08-19T06:43:22;100578.31;;;23.55;54.60
44825;BME280;30542;47.928;2.138;2022-08-19T06:48:22;100581.53;;;23.57;54.04
44825;BME280;30542;47.928;2.138;2022-08-19T06:53:23;100578.03;;;23.56;53.69
44825;BME280;30542;47.928;2.138;2022-08-19T06:58:23;100576.16;;;23.57;53.70
44825;BME280;30542;47.928;2.138;2022-08-19T07:03:23;100583.94;;;23.58;53.34
44825;BME280;30542;47.928;2.138;2022-08-19T07:08:24;100590.09;;;23.59;53.07
44825;BME280;30542;47.928;2.138;2022-08-19T07:13:26;100589.03;;;23.60;52.81
44825;BME280;30542;47.928;2.138;2022-08-19T07:18:26;100593.34;;;23.61;52.70
44825;BME280;30542;47.928;2.138;2022-08-19T07:23:27;100586.88;;;23.62;52.43
44825;BME280;30542;47.928;2.138;2022-08-19T07:28:28;100600.00;;;23.64;52.42
44825;BME280;30542;47.928;2.138;2022-08-19T07:33:28;100593.34;;;23.61;52.03
44825;BME280;30542;47.928;2.138;2022-08-19T07:38:33;100594.94;;;23.62;52.01
44825;BME280;30542;47.928;2.138;2022-08-19T07:43:35;100594.41;;;23.65;51.91
44825;BME280;30542;47.928;2.138;2022-08-19T07:48:36;100579.59;;;23.63;51.73
44825;BME280;30542;47.928;2.138;2022-08-19T07:53:37;100588.72;;;23.67;51.76
44825;BME280;30542;47.928;2.138;2022-08-19T07:58:40;100585.25;;;23.66;51.57
44825;BME280;30542;47.928;2.138;2022-08-19T08:03:41;100592.50;;;23.66;51.63
44825;BME280;30542;47.928;2.138;2022-08-19T08:09:03;100594.13;;;23.67;51.50
44825;BME280;30542;47.928;2.138;2022-08-19T08:14:24;100593.03;;;23.68;51.46
44825;BME280;30542;47.928;2.138;2022-08-19T08:19:26;100588.72;;;23.67;51.39
44825;BME280;30542;47.928;2.138;2022-08-19T08:24:29;100597.34;;;23.69;51.30
44825;BME280;30542;47.928;2.138;2022-08-19T08:29:31;100597.59;;;23.67;51.42
44825;BME280;30542;47.928;2.138;2022-08-19T08:34:31;100612.38;;;23.70;51.30
44825;BME280;30542;47.928;2.138;2022-08-19T08:39:32;100610.19;;;23.72;51.28
44825;BME280;30542;47.928;2.138;2022-08-19T08:44:43;100601.34;;;23.71;51.08
44825;BME280;30542;47.928;2.138;2022-08-19T08:49:56;100601.88;;;23.73;51.12
44825;BME280;30542;47.928;2.138;2022-08-19T08:55:04;100593.50;;;23.75;50.93
44825;BME280;30542;47.928;2.138;2022-08-19T09:00:09;100597.00;;;23.75;51.03
44825;BME280;30542;47.928;2.138;2022-08-19T09:05:11;100598.31;;;23.78;50.95
44825;BME280;30542;47.928;2.138;2022-08-19T09:10:29;100609.38;;;23.76;50.98
44825;BME280;30542;47.928;2.138;2022-08-19T09:15:35;100601.88;;;23.73;50.97
44825;BME280;30542;47.928;2.138;2022-08-19T09:20:36;100592.94;;;23.78;50.98
44825;BME280;30542;47.928;2.138;2022-08-19T09:25:37;100607.72;;;23.80;50.89
44825;BME280;30542;47.928;2.138;2022-08-19T09:30:41;100600.47;;;23.76;50.86
44825;BME280;30542;47.928;2.138;2022-08-19T09:35:41;100605.84;;;23.81;50.98
44825;BME280;30542;47.928;2.138;2022-08-19T09:40:42;100608.53;;;23.81;50.85
44825;BME280;30542;47.928;2.138;2022-08-19T09:45:42;100601.53;;;23.80;51.33
44825;BME280;30542;47.928;2.138;2022-08-19T09:50:42;100606.34;;;23.83;50.77
44825;BME280;30542;47.928;2.138;2022-08-19T09:55:43;100610.94;;;23.83;50.92
44825;BME280;30542;47.928;2.138;2022-08-19T10:00:44;100600.16;;;23.83;50.86
44825;BME280;30542;47.928;2.138;2022-08-19T10:05:46;100596.69;;;23.82;50.74
44825;BME280;30542;47.928;2.138;2022-08-19T10:10:49;100602.56;;;23.84;50.76
44825;BME280;30542;47.928;2.138;2022-08-19T10:15:51;100594.78;;;23.83;50.91
44825;BME280;30542;47.928;2.138;2022-08-19T10:21:01;100599.88;;;23.84;51.01
44825;BME280;30542;47.928;2.138;2022-08-19T10:26:04;100593.44;;;23.85;50.90
44825;BME280;30542;47.928;2.138;2022-08-19T10:31:14;100593.13;;;23.87;50.92
44825;BME280;30542;47.928;2.138;2022-08-19T10:36:19;100604.19;;;23.85;51.06
44825;BME280;30542;47.928;2.138;2022-08-19T10:41:21;100630.00;;;23.86;51.26
44825;BME280;30542;47.928;2.138;2022-08-19T10:46:24;100626.28;;;23.82;51.46
44825;BME280;30542;47.928;2.138;2022-08-19T10:56:27;100620.34;;;23.85;51.74
44825;BME280;30542;47.928;2.138;2022-08-19T11:01:46;100605.00;;;23.86;51.89
44825;BME280;30542;47.928;2.138;2022-08-19T11:06:48;100602.56;;;23.84;51.82
44825;BME280;30542;47.928;2.138;2022-08-19T11:11:48;100601.22;;;23.87;51.75
44825;BME280;30542;47.928;2.138;2022-08-19T11:16:49;100603.59;;;23.88;52.04
44825;BME280;30542;47.928;2.138;2022-08-19T11:21:51;100588.00;;;23.90;52.17
44825;BME280;30542;47.928;2.138;2022-08-19T11:26:54;100600.66;;;23.90;52.23
44825;BME280;30542;47.928;2.138;2022-08-19T11:32:03;100595.28;;;23.90;52.31
44825;BME280;30542;47.928;2.138;2022-08-19T11:37:05;100583.72;;;23.89;52.82
44825;BME280;30542;47.928;2.138;2022-08-19T11:42:06;100588.00;;;23.90;52.59
44825;BME280;30542;47.928;2.138;2022-08-19T11:47:25;100589.31;;;23.93;52.70
44825;BME280;30542;47.928;2.138;2022-08-19T11:52:26;100600.34;;;23.91;52.88
44825;BME280;30542;47.928;2.138;2022-08-19T11:57:27;100580.44;;;23.92;52.65
44825;BME280;30542;47.928;2.138;2022-08-19T12:02:28;100570.19;;;23.94;52.88
44825;BME280;30542;47.928;2.138;2022-08-19T12:07:29;100561.34;;;23.89;52.55
44825;BME280;30542;47.928;2.138;2022-08-19T12:12:31;100571.28;;;23.93;52.50
44825;BME280;30542;47.928;2.138;2022-08-19T12:17:32;100565.63;;;23.95;52.46
44825;BME280;30542;47.928;2.138;2022-08-19T12:22:32;100559.44;;;23.94;52.53
44825;BME280;30542;47.928;2.138;2022-08-19T12:27:32;100561.84;;;23.96;52.61
44825;BME280;30542;47.928;2.138;2022-08-19T12:32:33;100560.25;;;23.95;52.46
44825;BME280;30542;47.928;2.138;2022-08-19T12:37:34;100559.16;;;23.96;52.73
44825;BME280;30542;47.928;2.138;2022-08-19T12:42:34;100557.56;;;23.95;52.51
44825;BME280;30542;47.928;2.138;2022-08-19T12:47:35;100562.63;;;23.96;52.38
44825;BME280;30542;47.928;2.138;2022-08-19T12:52:36;100548.16;;;23.92;52.59
44825;BME280;30542;47.928;2.138;2022-08-19T12:57:37;100557.25;;;23.96;52.52
44825;BME280;30542;47.928;2.138;2022-08-19T13:02:42;100541.91;;;23.97;52.42
44825;BME280;30542;47.928;2.138;2022-08-19T13:07:44;100531.97;;;23.97;52.36
44825;BME280;30542;47.928;2.138;2022-08-19T13:12:47;100536.81;;;23.95;52.64
44825;BME280;30542;47.928;2.138;2022-08-19T13:17:49;100540.84;;;23.98;52.65
44825;BME280;30542;47.928;2.138;2022-08-19T13:22:50;100545.13;;;23.99;52.73
44825;BME280;30542;47.928;2.138;2022-08-19T13:27:51;100534.38;;;23.99;52.57
44825;BME280;30542;47.928;2.138;2022-08-19T13:32:52;100518.22;;;23.99;52.72
44825;BME280;30542;47.928;2.138;2022-08-19T13:38:12;100527.41;;;23.98;52.52
44825;BME280;30542;47.928;2.138;2022-08-19T13:43:13;100519.81;;;24.00;52.54
44825;BME280;30542;47.928;2.138;2022-08-19T13:48:13;100512.53;;;24.00;52.49
44825;BME280;30542;47.928;2.138;2022-08-19T13:53:14;100496.94;;;24.02;52.37
44825;BME280;30542;47.928;2.138;2022-08-19T13:58:15;100505.50;;;24.04;52.42
44825;BME280;30542;47.928;2.138;2022-08-19T14:03:15;100489.34;;;24.04;52.47
44825;BME280;30542;47.928;2.138;2022-08-19T14:08:16;100513.56;;;24.04;52.43
44825;BME280;30542;47.928;2.138;2022-08-19T14:13:20;100571.19;;;24.03;52.55
44825;BME280;30542;47.928;2.138;2022-08-19T14:18:20;100556.13;;;24.02;53.07
44825;BME280;30542;47.928;2.138;2022-08-19T14:23:21;100519.59;;;23.96;53.90
44825;BME280;30542;47.928;2.138;2022-08-19T14:28:21;100522.81;;;23.98;53.81
44825;BME280;30542;47.928;2.138;2022-08-19T14:33:22;100525.44;;;24.03;53.88
44825;BME280;30542;47.928;2.138;2022-08-19T14:38:22;100514.69;;;24.03;53.52
44825;BME280;30542;47.928;2.138;2022-08-19T14:43:23;100521.66;;;24.04;53.56
44825;BME280;30542;47.928;2.138;2022-08-19T14:48:23;100513.06;;;24.02;53.79
44825;BME280;30542;47.928;2.138;2022-08-19T14:53:24;100510.09;;;24.04;53.74
44825;BME280;30542;47.928;2.138;2022-08-19T14:58:24;100516.28;;;24.04;53.79
44825;BME280;30542;47.928;2.138;2022-08-19T15:03:24;100520.84;;;24.04;53.70
44825;BME280;30542;47.928;2.138;2022-08-19T15:08:27;100511.47;;;24.01;53.89
44825;BME280;30542;47.928;2.138;2022-08-19T15:13:28;100510.88;;;24.04;53.88
44825;BME280;30542;47.928;2.138;2022-08-19T15:18:29;100507.34;;;24.09;54.29
44825;BME280;30542;47.928;2.138;2022-08-19T15:23:29;100504.66;;;24.09;54.11
44825;BME280;30542;47.928;2.138;2022-08-19T15:28:30;100507.34;;;24.09;53.95
44825;BME280;30542;47.928;2.138;2022-08-19T15:33:32;100511.34;;;24.12;53.91
44825;BME280;30542;47.928;2.138;2022-08-19T15:38:35;100509.41;;;24.17;54.47
44825;BME280;30542;47.928;2.138;2022-08-19T15:43:40;100510.78;;;24.15;54.67
44825;BME280;30542;47.928;2.138;2022-08-19T15:48:41;100513.47;;;24.15;55.06
44825;BME280;30542;47.928;2.138;2022-08-19T15:53:42;100513.19;;;24.16;55.77
44825;BME280;30542;47.928;2.138;2022-08-19T15:58:43;100509.22;;;24.09;56.23
44825;BME280;30542;47.928;2.138;2022-08-19T16:04:02;100509.19;;;24.14;56.37
44825;BME280;30542;47.928;2.138;2022-08-19T16:09:24;100502.78;;;24.10;56.98
44825;BME280;30542;47.928;2.138;2022-08-19T16:14:25;100501.38;;;24.12;57.21
44825;BME280;30542;47.928;2.138;2022-08-19T16:19:25;100492.22;;;24.13;56.63
44825;BME280;30542;47.928;2.138;2022-08-19T16:24:27;100500.25;;;24.18;56.85
44825;BME280;30542;47.928;2.138;2022-08-19T16:29:27;100501.84;;;24.19;56.56
44825;BME280;30542;47.928;2.138;2022-08-19T16:34:28;100490.06;;;24.15;56.42
44825;BME280;30542;47.928;2.138;2022-08-19T16:39:28;100512.31;;;24.21;56.39
44825;BME280;30542;47.928;2.138;2022-08-19T16:44:28;100516.91;;;24.20;56.17
44825;BME280;30542;47.928;2.138;2022-08-19T16:49:29;100518.78;;;24.20;56.07
44825;BME280;30542;47.928;2.138;2022-08-19T16:54:31;100526.06;;;24.19;55.75
44825;BME280;30542;47.928;2.138;2022-08-19T16:59:33;100546.81;;;24.19;55.54
44825;BME280;30542;47.928;2.138;2022-08-19T17:04:33;100551.66;;;24.17;56.16
44825;BME280;30542;47.928;2.138;2022-08-19T17:09:33;100551.66;;;24.17;56.14
44825;BME280;30542;47.928;2.138;2022-08-19T17:14:34;100544.69;;;24.16;56.05
44825;BME280;30542;47.928;2.138;2022-08-19T17:19:34;100539.31;;;24.16;56.06
44825;BME280;30542;47.928;2.138;2022-08-19T17:24:35;100523.16;;;24.16;56.22
44825;BME280;30542;47.928;2.138;2022-08-19T17:29:35;100516.97;;;24.15;56.26
44825;BME280;30542;47.928;2.138;2022-08-19T17:34:36;100522.66;;;24.14;56.23
44825;BME280;30542;47.928;2.138;2022-08-19T17:39:37;100520.75;;;24.14;56.19
44825;BME280;30542;47.928;2.138;2022-08-19T17:44:38;100533.13;;;24.15;56.02
44825;BME280;30542;47.928;2.138;2022-08-19T17:49:39;100532.31;;;24.15;55.97
44825;BME280;30542;47.928;2.138;2022-08-19T17:54:40;100529.31;;;24.16;55.92
44825;BME280;30542;47.928;2.138;2022-08-19T17:59:41;100533.13;;;24.15;55.92
44825;BME280;30542;47.928;2.138;2022-08-19T18:04:41;100523.44;;;24.14;55.95
44825;BME280;30542;47.928;2.138;2022-08-19T18:09:41;100535.81;;;24.15;55.85
44825;BME280;30542;47.928;2.138;2022-08-19T18:14:42;100531.53;;;24.14;55.88
44825;BME280;30542;47.928;2.138;2022-08-19T18:19:43;100539.31;;;24.16;55.75
44825;BME280;30542;47.928;2.138;2022-08-19T18:24:44;100555.75;;;24.14;55.81
44825;BME280;30542;47.928;2.138;2022-08-19T18:29:44;100574.28;;;24.16;55.57
44825;BME280;30542;47.928;2.138;2022-08-19T18:34:45;100571.59;;;24.16;55.61
44825;BME280;30542;47.928;2.138;2022-08-19T18:39:45;100565.72;;;24.14;55.62
44825;BME280;30542;47.928;2.138;2022-08-19T18:45:05;100570.78;;;24.15;55.47
44825;BME280;30542;47.928;2.138;2022-08-19T18:50:24;100579.97;;;24.14;55.57
44825;BME280;30542;47.928;2.138;2022-08-19T18:55:24;100598.50;;;24.16;55.53
44825;BME280;30542;47.928;2.138;2022-08-19T19:00:27;100613.06;;;24.15;55.50
44825;BME280;30542;47.928;2.138;2022-08-19T19:05:28;100623.03;;;24.14;55.68
44825;BME280;30542;47.928;2.138;2022-08-19T19:10:28;100635.38;;;24.15;55.61
44825;BME280;30542;47.928;2.138;2022-08-19T19:15:29;100640.25;;;24.13;55.48
44825;BME280;30542;47.928;2.138;2022-08-19T19:20:29;100652.34;;;24.16;55.46
44825;BME280;30542;47.928;2.138;2022-08-19T19:25:30;100660.69;;;24.14;55.52
44825;BME280;30542;47.928;2.138;2022-08-19T19:30:31;100659.91;;;24.14;55.66
44825;BME280;30542;47.928;2.138;2022-08-19T19:35:32;100649.94;;;24.14;55.62
44825;BME280;30542;47.928;2.138;2022-08-19T19:40:32;100666.34;;;24.13;55.63
44825;BME280;30542;47.928;2.138;2022-08-19T19:45:33;100653.19;;;24.11;55.43
44825;BME280;30542;47.928;2.138;2022-08-19T19:50:33;100661.50;;;24.15;55.69
44825;BME280;30542;47.928;2.138;2022-08-19T19:55:33;100659.63;;;24.15;55.60
44825;BME280;30542;47.928;2.138;2022-08-19T20:00:35;100663.66;;;24.13;55.77
44825;BME280;30542;47.928;2.138;2022-08-19T20:05:36;100674.44;;;24.13;55.76
44825;BME280;30542;47.928;2.138;2022-08-19T20:10:37;100667.16;;;24.13;55.58
44825;BME280;30542;47.928;2.138;2022-08-19T20:15:38;100670.69;;;24.09;55.53
44825;BME280;30542;47.928;2.138;2022-08-19T20:20:39;100675.22;;;24.13;55.58
44825;BME280;30542;47.928;2.138;2022-08-19T20:25:40;100667.69;;;24.15;55.43
44825;BME280;30542;47.928;2.138;2022-08-19T20:30:42;100672.53;;;24.13;55.55
44825;BME280;30542;47.928;2.138;2022-08-19T20:35:43;100683.28;;;24.13;55.44
44825;BME280;30542;47.928;2.138;2022-08-19T20:40:44;100682.22;;;24.14;55.50
44825;BME280;30542;47.928;2.138;2022-08-19T20:45:45;100684.94;;;24.14;54.99
44825;BME280;30542;47.928;2.138;2022-08-19T20:50:46;100691.38;;;24.13;55.31
44825;BME280;30542;47.928;2.138;2022-08-19T20:55:47;100684.06;;;24.19;55.06
44825;BME280;30542;47.928;2.138;2022-08-19T21:00:49;100684.06;;;24.19;55.13
44825;BME280;30542;47.928;2.138;2022-08-19T21:05:49;100676.56;;;24.16;55.83
44825;BME280;30542;47.928;2.138;2022-08-19T21:10:51;100669.03;;;24.13;56.00
44825;BME280;30542;47.928;2.138;2022-08-19T21:15:51;100678.22;;;24.12;56.36
44825;BME280;30542;47.928;2.138;2022-08-19T21:20:53;100674.19;;;24.09;56.37
44825;BME280;30542;47.928;2.138;2022-08-19T21:25:56;100676.06;;;24.09;56.91
44825;BME280;30542;47.928;2.138;2022-08-19T21:30:57;100676.06;;;24.09;56.88
44825;BME280;30542;47.928;2.138;2022-08-19T21:35:59;100665.31;;;24.09;57.12
44825;BME280;30542;47.928;2.138;2022-08-19T21:41:00;100673.38;;;24.09;57.12
44825;BME280;30542;47.928;2.138;2022-08-19T21:46:01;100677.97;;;24.08;57.09
44825;BME280;30542;47.928;2.138;2022-08-19T21:51:02;100679.84;;;24.08;57.27
44825;BME280;30542;47.928;2.138;2022-08-19T21:56:03;100675.31;;;24.03;57.07
44825;BME280;30542;47.928;2.138;2022-08-19T22:01:05;100680.94;;;24.06;57.06
44825;BME280;30542;47.928;2.138;2022-08-19T22:06:07;100678.00;;;24.03;57.18
44825;BME280;30542;47.928;2.138;2022-08-19T22:11:08;100686.34;;;24.06;57.08
44825;BME280;30542;47.928;2.138;2022-08-19T22:16:08;100682.06;;;24.00;57.26
44825;BME280;30542;47.928;2.138;2022-08-19T22:21:09;100706.25;;;24.05;57.05
44825;BME280;30542;47.928;2.138;2022-08-19T22:26:10;100695.81;;;23.99;57.11
44825;BME280;30542;47.928;2.138;2022-08-19T22:31:11;100719.97;;;24.04;57.24
44825;BME280;30542;47.928;2.138;2022-08-19T22:36:12;100713.56;;;24.00;56.83
44825;BME280;30542;47.928;2.138;2022-08-19T22:41:13;100697.22;;;23.91;57.38
44825;BME280;30542;47.928;2.138;2022-08-19T22:46:15;100721.38;;;24.01;57.18
44825;BME280;30542;47.928;2.138;2022-08-19T22:51:16;100724.06;;;24.01;57.15
44825;BME280;30542;47.928;2.138;2022-08-19T22:56:35;100725.91;;;24.01;57.19
44825;BME280;30542;47.928;2.138;2022-08-19T23:01:35;100717.09;;;23.95;57.20
44825;BME280;30542;47.928;2.138;2022-08-19T23:06:36;100723.50;;;23.99;57.13
44825;BME280;30542;47.928;2.138;2022-08-19T23:11:38;100721.63;;;24.00;56.86
44825;BME280;30542;47.928;2.138;2022-08-19T23:16:39;100731.88;;;23.98;56.72
44825;BME280;30542;47.928;2.138;2022-08-19T23:21:41;100723.28;;;23.96;56.70
44825;BME280;30542;47.928;2.138;2022-08-19T23:26:42;100725.16;;;23.95;56.55
44825;BME280;30542;47.928;2.138;2022-08-19T23:32:01;100737.81;;;23.95;56.31
44825;BME280;30542;47.928;2.138;2022-08-19T23:37:02;100737.28;;;23.93;56.34
44825;BME280;30542;47.928;2.138;2022-08-19T23:42:04;100735.16;;;23.90;55.97
44825;BME280;30542;47.928;2.138;2022-08-19T23:47:07;100749.38;;;23.95;55.78
44825;BME280;30542;47.928;2.138;2022-08-19T23:52:07;100749.38;;;23.95;55.71
44825;BME280;30542;47.928;2.138;2022-08-19T23:57:08;100747.25;;;23.92;55.75
